createdAt,value
2019-03-20T00:02:17.749Z,73.04
2019-03-20T00:04:52.898Z,73.81
2019-03-20T00:07:23.834Z,73.80
2019-03-20T00:09:54.763Z,73.51
2019-03-20T00:12:25.736Z,72.93
2019-03-20T00:14:56.628Z,72.79
2019-03-20T00:17:27.763Z,72.74
2019-03-20T00:20:00.903Z,73.24
2019-03-20T00:22:31.818Z,73.34
2019-03-20T00:25:03.133Z,73.13
2019-03-20T00:27:34.282Z,73.64
2019-03-20T00:30:10.884Z,73.90
2019-03-20T00:32:45.261Z,74.34
2019-03-20T00:35:16.210Z,74.66
2019-03-20T00:37:47.128Z,74.72
2019-03-20T00:40:18.920Z,74.64
2019-03-20T00:42:49.866Z,74.42
2019-03-20T00:45:21.664Z,74.58
2019-03-20T00:47:52.597Z,74.58
2019-03-20T00:50:23.534Z,75.30
2019-03-20T00:52:54.468Z,75.74
2019-03-20T00:55:25.390Z,75.80
2019-03-20T00:57:57.992Z,75.80
2019-03-20T01:00:28.886Z,75.61
2019-03-20T01:02:59.827Z,75.26
2019-03-20T01:05:30.722Z,75.02
2019-03-20T01:08:18.427Z,75.02
2019-03-20T01:10:54.130Z,75.74
2019-03-20T01:13:26.089Z,75.28
2019-03-20T01:15:57.778Z,75.47
2019-03-20T01:18:29.030Z,75.66
2019-03-20T01:20:59.969Z,75.54
2019-03-20T01:23:30.953Z,75.61
2019-03-20T01:26:01.960Z,75.41
2019-03-20T01:28:33.062Z,75.32
2019-03-20T01:31:07.968Z,75.65
2019-03-20T01:33:38.920Z,75.30
2019-03-20T01:36:09.872Z,75.00
2019-03-20T01:38:40.838Z,75.00
2019-03-20T01:41:11.894Z,74.95
2019-03-20T01:43:42.938Z,74.51
2019-03-20T01:46:13.886Z,75.01
2019-03-20T01:48:44.856Z,75.00
2019-03-20T01:51:20.214Z,75.65
2019-03-20T01:53:51.934Z,75.86
2019-03-20T01:56:22.862Z,75.86
2019-03-20T01:58:54.695Z,75.94
2019-03-20T02:01:25.644Z,75.94
2019-03-20T02:03:56.633Z,75.55
2019-03-20T02:06:27.672Z,75.55
2019-03-20T02:08:58.614Z,76.03
2019-03-20T02:11:29.652Z,75.60
2019-03-20T02:14:00.648Z,75.65
2019-03-20T02:16:31.584Z,75.44
2019-03-20T02:19:02.663Z,75.75
2019-03-20T02:21:36.329Z,75.69
2019-03-20T02:24:07.401Z,75.68
2019-03-20T02:26:38.419Z,75.29
2019-03-20T02:29:10.308Z,75.29
2019-03-20T02:31:41.321Z,74.86
2019-03-20T02:34:12.311Z,74.98
2019-03-20T02:36:43.344Z,75.20
2019-03-20T02:39:14.289Z,75.40
2019-03-20T02:41:45.443Z,75.51
2019-03-20T02:44:16.575Z,75.51
2019-03-20T02:46:47.634Z,75.56
2019-03-20T02:49:18.747Z,75.33
2019-03-20T02:51:49.811Z,75.39
2019-03-20T02:54:20.789Z,75.39
2019-03-20T02:56:51.788Z,76.29
2019-03-20T02:59:23.746Z,76.29
2019-03-20T03:01:54.732Z,76.00
2019-03-20T03:04:25.838Z,76.03
2019-03-20T03:06:56.774Z,75.79
2019-03-20T03:09:27.878Z,76.24
2019-03-20T03:11:59.726Z,76.40
2019-03-20T03:14:33.425Z,76.35
2019-03-20T03:17:04.363Z,76.11
2019-03-20T03:19:35.291Z,76.11
2019-03-20T03:22:06.220Z,76.70
2019-03-20T03:24:37.200Z,76.55
2019-03-20T03:27:08.023Z,76.13
2019-03-20T03:29:40.827Z,76.60
2019-03-20T03:32:13.702Z,76.02
2019-03-20T03:34:44.654Z,76.41
2019-03-20T03:37:15.594Z,76.56
2019-03-20T03:39:46.548Z,76.46
2019-03-20T03:42:17.452Z,76.51
2019-03-20T03:44:49.373Z,76.04
2019-03-20T03:47:20.516Z,76.59
2019-03-20T03:49:51.604Z,76.92
2019-03-20T03:52:24.337Z,76.89
2019-03-20T03:54:58.604Z,76.35
2019-03-20T03:57:32.494Z,76.55
2019-03-20T04:00:04.937Z,75.89
2019-03-20T04:02:37.775Z,76.15
2019-03-20T04:05:11.716Z,76.64
2019-03-20T04:07:45.380Z,76.18
2019-03-20T04:10:19.999Z,75.86
2019-03-20T04:12:51.104Z,75.59
2019-03-20T04:15:22.958Z,75.96
2019-03-20T04:17:54.024Z,75.95
2019-03-20T04:20:25.125Z,75.81
2019-03-20T04:22:56.128Z,76.10
2019-03-20T04:25:27.170Z,75.61
2019-03-20T04:27:59.419Z,75.91
2019-03-20T04:30:30.431Z,76.52
2019-03-20T04:33:02.877Z,76.58
2019-03-20T04:35:33.898Z,76.73
2019-03-20T04:38:04.978Z,77.38
2019-03-20T04:40:36.029Z,77.29
2019-03-20T04:43:07.094Z,77.21
2019-03-20T04:45:38.050Z,77.08
2019-03-20T04:48:08.951Z,76.97
2019-03-20T04:50:39.799Z,77.14
2019-03-20T04:53:10.708Z,77.37
2019-03-20T04:55:41.642Z,77.28
2019-03-20T04:58:12.545Z,77.35
2019-03-20T05:00:45.108Z,76.92
2019-03-20T05:03:16.075Z,77.25
2019-03-20T05:05:47.001Z,77.25
2019-03-20T05:08:17.894Z,77.28
2019-03-20T05:10:48.897Z,77.28
2019-03-20T05:13:19.811Z,76.92
2019-03-20T05:15:51.131Z,76.92
2019-03-20T05:18:22.040Z,77.00
2019-03-20T05:20:52.968Z,77.11
2019-03-20T05:23:23.868Z,76.98
2019-03-20T05:25:54.804Z,77.00
2019-03-20T05:28:25.690Z,76.82
2019-03-20T05:30:57.571Z,76.75
2019-03-20T05:33:28.465Z,76.24
2019-03-20T05:35:59.399Z,75.81
2019-03-20T05:38:30.344Z,75.22
2019-03-20T05:41:01.333Z,74.56
2019-03-20T05:43:32.253Z,73.96
2019-03-20T05:46:04.073Z,73.96
2019-03-20T05:48:34.979Z,73.15
2019-03-20T05:51:05.917Z,72.89
2019-03-20T05:53:36.823Z,72.48
2019-03-20T05:56:09.488Z,71.80
2019-03-20T05:58:40.381Z,71.07
2019-03-20T06:01:11.319Z,70.58
2019-03-20T06:03:42.307Z,70.54
2019-03-20T06:06:13.325Z,69.62
2019-03-20T06:08:44.230Z,68.87
2019-03-20T06:11:15.161Z,67.96
2019-03-20T06:13:46.066Z,67.61
2019-03-20T06:16:17.944Z,66.66
2019-03-20T06:18:48.859Z,66.30
2019-03-20T06:21:19.789Z,65.04
2019-03-20T06:23:50.692Z,64.38
2019-03-20T06:26:21.611Z,63.63
2019-03-20T06:28:52.518Z,62.83
2019-03-20T06:31:24.262Z,62.31
2019-03-20T06:33:55.161Z,61.52
2019-03-20T06:36:28.259Z,60.98
2019-03-20T06:38:58.694Z,60.23
2019-03-20T06:41:29.638Z,59.46
2019-03-20T06:44:00.541Z,59.02
2019-03-20T06:46:32.374Z,58.26
2019-03-20T06:49:03.339Z,57.89
2019-03-20T06:51:34.287Z,57.19
2019-03-20T06:54:05.198Z,56.79
2019-03-20T06:56:36.127Z,56.80
2019-03-20T06:59:24.257Z,56.42
2019-03-20T07:01:55.730Z,56.35
2019-03-20T07:04:38.305Z,56.38
2019-03-20T07:07:12.203Z,56.62
2019-03-20T07:09:55.067Z,56.37
2019-03-20T07:12:25.995Z,56.14
2019-03-20T07:14:57.696Z,56.06
2019-03-20T07:17:28.649Z,55.67
2019-03-20T07:19:59.541Z,55.39
2019-03-20T07:22:30.537Z,54.69
2019-03-20T07:25:01.450Z,54.37
2019-03-20T07:27:32.386Z,53.90
2019-03-20T07:30:03.777Z,53.43
2019-03-20T07:32:35.515Z,52.90
2019-03-20T07:35:06.412Z,52.30
2019-03-20T07:37:37.342Z,52.01
2019-03-20T07:40:09.439Z,50.98
2019-03-20T07:42:41.273Z,50.36
2019-03-20T07:45:12.247Z,50.21
2019-03-20T07:47:44.162Z,49.52
2019-03-20T07:50:17.846Z,48.53
2019-03-20T07:52:49.536Z,48.03
2019-03-20T07:55:20.441Z,47.45
2019-03-20T07:57:51.368Z,47.03
2019-03-20T08:00:22.362Z,46.83
2019-03-20T08:02:53.466Z,46.17
2019-03-20T08:05:29.172Z,45.88
2019-03-20T08:08:06.824Z,45.84
2019-03-20T08:10:29.646Z,45.48
2019-03-20T08:13:00.563Z,45.18
2019-03-20T08:15:32.534Z,45.11
2019-03-20T08:18:03.489Z,44.71
2019-03-20T08:20:34.362Z,44.50
2019-03-20T08:23:05.314Z,44.56
2019-03-20T08:25:36.212Z,44.62
2019-03-20T08:28:07.135Z,44.73
2019-03-20T08:30:38.027Z,44.21
2019-03-20T08:33:08.977Z,44.20
2019-03-20T08:35:39.877Z,44.00
2019-03-20T08:38:18.258Z,44.10
2019-03-20T08:40:43.403Z,44.45
2019-03-20T08:43:14.318Z,44.54
2019-03-20T08:45:45.219Z,44.29
2019-03-20T08:48:16.955Z,44.01
2019-03-20T08:50:47.858Z,43.96
2019-03-20T08:53:18.777Z,43.98
2019-03-20T08:55:49.674Z,44.17
2019-03-20T08:58:20.599Z,44.13
2019-03-20T09:00:51.488Z,43.74
2019-03-20T09:03:23.298Z,44.04
2019-03-20T09:05:54.202Z,43.88
2019-03-20T09:08:29.602Z,43.77
2019-03-20T09:10:57.728Z,44.04
2019-03-20T09:13:28.711Z,43.87
2019-03-20T09:16:00.386Z,43.57
2019-03-20T09:18:31.328Z,43.64
2019-03-20T09:21:02.228Z,43.40
2019-03-20T09:23:33.154Z,43.30
2019-03-20T09:26:04.049Z,43.44
2019-03-20T09:28:34.974Z,43.58
2019-03-20T09:31:05.880Z,43.57
2019-03-20T09:33:37.748Z,43.75
2019-03-20T09:36:08.647Z,43.14
2019-03-20T09:38:43.725Z,42.55
2019-03-20T09:41:12.160Z,42.71
2019-03-20T09:43:43.086Z,42.56
2019-03-20T09:46:13.982Z,42.12
2019-03-20T09:48:45.947Z,41.40
2019-03-20T09:51:16.862Z,41.22
2019-03-20T09:53:47.834Z,41.21
2019-03-20T09:56:18.762Z,41.57
2019-03-20T09:58:49.772Z,41.24
2019-03-20T10:01:20.699Z,41.63
2019-03-20T10:03:51.671Z,40.97
2019-03-20T10:06:22.573Z,41.34
2019-03-20T10:08:54.410Z,41.25
2019-03-20T10:11:25.574Z,40.98
2019-03-20T10:13:56.492Z,41.05
2019-03-20T10:16:28.236Z,41.43
2019-03-20T10:18:59.991Z,41.20
2019-03-20T10:21:30.880Z,41.17
2019-03-20T10:24:05.251Z,41.30
2019-03-20T10:26:36.120Z,41.40
2019-03-20T10:29:07.039Z,41.18
2019-03-20T10:31:37.938Z,40.93
2019-03-20T10:34:09.032Z,41.24
2019-03-20T10:36:39.930Z,41.18
2019-03-20T10:39:10.913Z,41.49
2019-03-20T10:41:41.828Z,41.15
2019-03-20T10:44:12.748Z,40.86
2019-03-20T10:46:43.658Z,41.36
2019-03-20T10:49:15.473Z,41.86
2019-03-20T10:51:46.428Z,41.34
2019-03-20T10:54:17.352Z,41.63
2019-03-20T10:56:48.250Z,41.70
2019-03-20T10:59:19.179Z,41.47
2019-03-20T11:01:50.084Z,41.53
2019-03-20T11:04:21.840Z,41.92
2019-03-20T11:06:52.735Z,41.79
2019-03-20T11:09:23.734Z,41.99
2019-03-20T11:11:54.637Z,42.08
2019-03-20T11:14:25.594Z,42.05
2019-03-20T11:16:58.084Z,42.42
2019-03-20T11:19:29.881Z,42.28
2019-03-20T11:22:00.734Z,41.86
2019-03-20T11:24:32.946Z,42.00
2019-03-20T11:27:03.831Z,42.21
2019-03-20T11:29:34.772Z,42.26
2019-03-20T11:32:05.642Z,42.42
2019-03-20T11:34:36.678Z,42.62
2019-03-20T11:37:07.574Z,42.84
2019-03-20T11:39:38.495Z,42.83
2019-03-20T11:42:09.397Z,43.02
2019-03-20T11:44:40.335Z,42.69
2019-03-20T11:47:11.216Z,42.54
2019-03-20T11:49:43.039Z,42.88
2019-03-20T11:52:13.942Z,42.39
2019-03-20T11:54:44.886Z,42.33
2019-03-20T11:57:15.776Z,42.00
2019-03-20T11:59:46.698Z,41.67
2019-03-20T12:02:27.703Z,41.08
2019-03-20T12:04:50.294Z,40.87
2019-03-20T12:07:21.228Z,41.15
2019-03-20T12:09:52.157Z,39.58
2019-03-20T12:12:23.052Z,39.55
2019-03-20T12:14:54.002Z,38.72
2019-03-20T12:17:25.760Z,38.90
2019-03-20T12:19:57.594Z,38.08
2019-03-20T12:22:28.501Z,37.61
2019-03-20T12:24:59.439Z,37.92
2019-03-20T12:27:30.428Z,37.59
2019-03-20T12:30:01.364Z,37.74
2019-03-20T12:32:32.254Z,37.52
2019-03-20T12:35:04.034Z,37.34
2019-03-20T12:37:34.940Z,37.48
2019-03-20T12:40:20.288Z,37.38
2019-03-20T12:42:51.185Z,37.94
2019-03-20T12:45:24.755Z,37.81
2019-03-20T12:47:55.652Z,38.60
2019-03-20T12:50:27.594Z,38.78
2019-03-20T12:53:01.370Z,38.91
2019-03-20T12:55:31.401Z,38.58
2019-03-20T12:58:02.353Z,38.74
2019-03-20T13:00:33.286Z,38.88
2019-03-20T13:03:04.216Z,39.04
2019-03-20T13:05:35.995Z,39.40
2019-03-20T13:08:06.893Z,39.45
2019-03-20T13:10:37.827Z,39.73
2019-03-20T13:13:08.803Z,39.86
2019-03-20T13:15:39.717Z,39.96
2019-03-20T13:18:11.390Z,40.26
2019-03-20T13:20:43.268Z,40.38
2019-03-20T13:23:22.713Z,40.72
2019-03-20T13:25:53.651Z,40.77
2019-03-20T13:28:24.561Z,41.17
2019-03-20T13:31:10.608Z,41.36
2019-03-20T13:33:41.507Z,41.49
2019-03-20T13:36:13.277Z,41.92
2019-03-20T13:38:44.176Z,42.26
2019-03-20T13:41:15.113Z,42.29
2019-03-20T13:43:46.014Z,42.56
2019-03-20T13:46:16.946Z,42.89
2019-03-20T13:48:47.858Z,43.00
2019-03-20T13:51:19.626Z,43.30
2019-03-20T13:53:50.530Z,43.08
2019-03-20T13:56:21.468Z,43.19
2019-03-20T13:58:52.477Z,43.15
2019-03-20T14:01:23.372Z,43.29
2019-03-20T14:03:54.269Z,43.45
2019-03-20T14:06:26.068Z,43.43
2019-03-20T14:08:56.963Z,43.60
2019-03-20T14:11:28.874Z,43.86
2019-03-20T14:13:59.787Z,44.51
2019-03-20T14:16:30.721Z,45.29
2019-03-20T14:19:03.375Z,45.54
2019-03-20T14:21:35.207Z,45.66
2019-03-20T14:24:06.112Z,46.25
2019-03-20T14:26:37.030Z,46.42
2019-03-20T14:29:07.933Z,46.82
2019-03-20T14:31:38.883Z,46.66
2019-03-20T14:34:09.777Z,46.71
2019-03-20T14:36:41.550Z,46.73
2019-03-20T14:39:12.526Z,46.90
2019-03-20T14:41:43.529Z,47.36
2019-03-20T14:44:14.446Z,47.39
2019-03-20T14:46:45.387Z,47.67
2019-03-20T14:49:16.321Z,47.84
2019-03-20T14:51:48.193Z,48.11
2019-03-20T14:54:19.104Z,48.46
2019-03-20T14:56:50.039Z,48.81
2019-03-20T14:59:20.957Z,48.72
2019-03-20T15:01:51.893Z,48.89
2019-03-20T15:04:22.807Z,48.76
2019-03-20T15:06:53.797Z,49.03
2019-03-20T15:09:24.772Z,49.16
2019-03-20T15:11:55.699Z,49.26
2019-03-20T15:14:26.611Z,49.54
2019-03-20T15:16:57.623Z,49.96
2019-03-20T15:19:30.201Z,50.16
2019-03-20T15:22:02.043Z,50.41
2019-03-20T15:24:32.949Z,50.51
2019-03-20T15:27:03.889Z,50.68
2019-03-20T15:29:34.790Z,50.82
2019-03-20T15:32:05.791Z,51.16
2019-03-20T15:34:36.697Z,51.73
2019-03-20T15:37:08.590Z,51.84
2019-03-20T15:39:39.505Z,52.00
2019-03-20T15:42:10.447Z,52.44
2019-03-20T15:44:41.717Z,53.17
2019-03-20T15:47:12.592Z,53.39
2019-03-20T15:49:43.497Z,53.52
2019-03-20T15:52:15.350Z,53.68
2019-03-20T15:54:47.079Z,53.97
2019-03-20T15:57:19.109Z,54.25
2019-03-20T15:59:50.623Z,54.44
2019-03-20T16:02:21.627Z,54.47
2019-03-20T16:04:52.536Z,54.74
2019-03-20T16:07:24.361Z,54.87
2019-03-20T16:09:57.805Z,55.02
2019-03-20T16:12:28.782Z,55.43
2019-03-20T16:14:59.706Z,55.72
2019-03-20T16:17:30.636Z,56.33
2019-03-20T16:20:02.463Z,56.33
2019-03-20T16:22:35.115Z,56.85
2019-03-20T16:25:09.333Z,56.77
2019-03-20T16:27:40.263Z,57.29
2019-03-20T16:30:14.311Z,57.88
2019-03-20T16:32:45.227Z,58.48
2019-03-20T16:35:16.132Z,58.42
2019-03-20T16:37:48.041Z,58.83
2019-03-20T16:40:20.857Z,58.74
2019-03-20T16:42:51.782Z,59.49
2019-03-20T16:45:38.974Z,60.27
2019-03-20T16:48:09.901Z,60.76
2019-03-20T16:50:40.796Z,60.79
2019-03-20T16:53:12.604Z,61.28
2019-03-20T16:55:43.573Z,61.67
2019-03-20T16:58:17.032Z,62.37
2019-03-20T17:00:47.101Z,62.93
2019-03-20T17:03:18.039Z,63.43
2019-03-20T17:05:48.949Z,63.69
2019-03-20T17:08:20.806Z,63.94
2019-03-20T17:10:51.813Z,64.22
2019-03-20T17:13:22.749Z,64.16
2019-03-20T17:15:53.657Z,64.27
2019-03-20T17:18:24.679Z,64.98
2019-03-20T17:20:57.968Z,65.25
2019-03-20T17:23:30.121Z,65.85
2019-03-20T17:26:01.033Z,66.01
2019-03-20T17:28:32.915Z,66.17
2019-03-20T17:31:03.757Z,65.87
2019-03-20T17:33:34.702Z,66.69
2019-03-20T17:36:05.606Z,66.63
2019-03-20T17:38:36.582Z,66.89
2019-03-20T17:41:07.492Z,67.42
2019-03-20T17:43:38.427Z,67.76
2019-03-20T17:46:09.456Z,68.99
2019-03-20T17:48:40.384Z,70.02
2019-03-20T17:51:11.290Z,70.71
2019-03-20T17:53:43.051Z,72.07
2019-03-20T17:56:14.029Z,72.16
2019-03-20T17:58:44.963Z,73.26
2019-03-20T18:01:15.866Z,73.97
2019-03-20T18:03:46.794Z,74.56
2019-03-20T18:06:17.706Z,74.99
2019-03-20T18:08:49.494Z,75.83
2019-03-20T18:11:20.391Z,75.44
2019-03-20T18:13:51.330Z,76.20
2019-03-20T18:16:22.227Z,76.25
2019-03-20T18:18:56.137Z,76.72
2019-03-20T18:21:27.863Z,76.79
2019-03-20T18:23:59.741Z,77.62
2019-03-20T18:26:30.709Z,77.55
2019-03-20T18:29:01.639Z,77.29
2019-03-20T18:31:32.612Z,77.96
2019-03-20T18:34:03.915Z,78.54
2019-03-20T18:36:34.830Z,78.94
2019-03-20T18:39:08.429Z,79.43
2019-03-20T18:41:39.595Z,78.68
2019-03-20T18:44:10.525Z,79.44
2019-03-20T18:46:41.437Z,79.42
2019-03-20T18:49:12.440Z,79.33
2019-03-20T18:51:43.344Z,80.07
2019-03-20T18:54:15.108Z,80.05
2019-03-20T18:56:46.014Z,79.53
2019-03-20T18:59:16.945Z,80.96
2019-03-20T19:01:47.851Z,80.44
2019-03-20T19:04:18.782Z,79.89
2019-03-20T19:06:49.693Z,80.01
2019-03-20T19:09:21.592Z,80.09
2019-03-20T19:11:52.556Z,80.25
2019-03-20T19:14:23.526Z,80.80
2019-03-20T19:16:54.495Z,80.81
2019-03-20T19:19:25.424Z,81.44
2019-03-20T19:21:58.831Z,80.24
2019-03-20T19:24:32.398Z,80.68
2019-03-20T19:27:03.308Z,80.75
2019-03-20T19:29:34.235Z,80.04
2019-03-20T19:32:05.139Z,80.83
2019-03-20T19:34:36.071Z,81.23
2019-03-20T19:37:06.987Z,81.32
2019-03-20T19:39:38.770Z,80.99
2019-03-20T19:42:19.547Z,81.09
2019-03-20T19:44:42.308Z,81.43
2019-03-20T19:47:13.209Z,81.05
2019-03-20T19:49:44.162Z,81.31
2019-03-20T19:52:15.059Z,81.84
2019-03-20T19:54:46.846Z,81.45
2019-03-20T19:57:19.363Z,81.85
2019-03-20T19:59:50.294Z,81.72
2019-03-20T20:02:21.202Z,82.03
2019-03-20T20:04:52.199Z,82.65
2019-03-20T20:07:23.101Z,82.86
2019-03-20T20:09:54.046Z,82.64
2019-03-20T20:12:31.252Z,82.57
2019-03-20T20:14:57.559Z,82.40
2019-03-20T20:17:28.463Z,82.07
2019-03-20T20:19:59.378Z,82.15
2019-03-20T20:22:31.354Z,82.16
2019-03-20T20:25:03.231Z,81.99
2019-03-20T20:27:34.126Z,82.19
2019-03-20T20:30:10.699Z,82.39
2019-03-20T20:32:41.598Z,81.85
2019-03-20T20:35:14.215Z,81.67
2019-03-20T20:37:46.014Z,81.37
2019-03-20T20:40:31.706Z,81.50
2019-03-20T20:43:02.606Z,81.78
2019-03-20T20:45:33.522Z,81.45
2019-03-20T20:48:04.418Z,81.38
2019-03-20T20:50:35.351Z,81.07
2019-03-20T20:53:06.251Z,81.37
2019-03-20T20:55:37.436Z,81.39
2019-03-20T20:58:08.340Z,80.90
2019-03-20T21:00:39.273Z,81.10
2019-03-20T21:03:10.167Z,81.19
2019-03-20T21:05:41.099Z,81.43
2019-03-20T21:08:11.997Z,80.84
2019-03-20T21:10:42.947Z,80.99
2019-03-20T21:13:13.854Z,80.48
2019-03-20T21:15:48.153Z,80.45
2019-03-20T21:18:47.822Z,80.55
2019-03-20T21:21:19.051Z,80.41
2019-03-20T21:24:24.807Z,80.67
2019-03-20T21:27:08.472Z,80.36
2019-03-20T21:30:06.435Z,80.28
2019-03-20T21:32:46.386Z,80.49
2019-03-20T21:35:53.809Z,80.55
2019-03-20T21:38:23.443Z,80.42
2019-03-20T21:41:18.435Z,80.39
2019-03-20T21:44:11.591Z,80.36
2019-03-20T21:47:18.949Z,80.56
2019-03-20T21:49:49.884Z,80.44
2019-03-20T21:52:20.792Z,80.62
2019-03-20T21:55:24.462Z,79.67
2019-03-20T21:58:03.195Z,80.24
2019-03-20T22:01:00.545Z,79.98
2019-03-20T22:03:31.448Z,80.02
2019-03-20T22:06:08.450Z,80.32
2019-03-20T22:08:39.351Z,80.28
2019-03-20T22:11:33.531Z,80.19
2019-03-20T22:14:07.344Z,80.41
2019-03-20T22:17:04.934Z,80.17
2019-03-20T22:20:04.320Z,79.87
2019-03-20T22:22:54.619Z,79.83
2019-03-20T22:25:31.083Z,79.83
2019-03-20T22:28:21.275Z,80.21
2019-03-20T22:30:52.271Z,80.14
2019-03-20T22:33:59.873Z,80.36
2019-03-20T22:36:30.962Z,80.25
2019-03-20T22:39:13.723Z,79.84
2019-03-20T22:42:05.656Z,79.97
2019-03-20T22:44:38.280Z,80.00
2019-03-20T22:47:31.861Z,79.89
2019-03-20T22:50:14.619Z,79.81
2019-03-20T22:53:20.102Z,79.78
2019-03-20T22:55:53.944Z,79.75
2019-03-20T22:58:32.093Z,79.84
2019-03-20T23:01:12.679Z,79.84
2019-03-20T23:03:55.458Z,79.91
2019-03-20T23:06:28.333Z,79.91
2019-03-20T23:08:59.226Z,79.61
2019-03-20T23:11:30.156Z,79.45
2019-03-20T23:14:01.065Z,79.01
2019-03-20T23:16:32.010Z,79.30
2019-03-20T23:19:02.914Z,79.23
2019-03-20T23:21:33.867Z,79.63
2019-03-20T23:24:04.787Z,79.90
2019-03-20T23:26:36.531Z,79.64
2019-03-20T23:29:07.487Z,79.50
2019-03-20T23:31:38.407Z,79.49
2019-03-20T23:34:09.312Z,79.16
2019-03-20T23:36:40.286Z,79.40
2019-03-20T23:39:11.193Z,79.70
2019-03-20T23:41:42.133Z,79.51
2019-03-20T23:44:13.049Z,79.76
2019-03-20T23:46:44.080Z,79.63
2019-03-20T23:49:20.907Z,79.70
2019-03-20T23:51:52.855Z,79.62
2019-03-20T23:54:32.687Z,79.79
2019-03-20T23:57:04.511Z,79.96
2019-03-20T23:59:37.003Z,80.06
